PWSweather.com
Personal Weather Stations
Station Observations
JOE4SPEED
Jupiter, Fl, Jupiter, FL 33458

Jupiter, FlJupiter, FL 33458

Lat: 26.9373, Lon: -80.1101

Elevation: 12

Station Type: Davis VP 2

http://www.joe4speed.com/wxindex.php

High Low Average
Temperature 84.3°F29.1°F 77.0°F25.0°F 79.5°F26.4°F
Dew Point 75.4°F24.1°F 72.9°F22.7°F 74.0°F23.3°F
Winds 13.8 mph SE22.2 mph SE 1.0 mph 1.6 mph 5.6 mph 9.0 mph
Wind Gusts 23.0 mph37.0 mph 2.0 mph3.2 mph 9.3 mph15.0 mph
Humidity 91% 72% 83%
Pressure 30.04 in1017.30 in 29.91 in1012.90 in -
Precipitation 0.00 in0.00 in - -
Hour Temp Dew Point Humidity Winds Wind Gusts Pressure Precip Precip Rate Daily Precip Total
12:00 AM 78.1°F25.6°C 74.9°F23.8°C 90% 2.9 mph S4.7 kmh S 4.0 mph6.4 kmh 30.03 in1016.9 mb 0.00 in0.0 mm 0.00 in/hr0.0 mm/hr 0.00 in0.0 mm
12:10 AM 78.1°F25.6°C 74.9°F23.8°C 90% 2.8 mph S4.5 kmh S 3.0 mph4.8 kmh 30.03 in1016.9 mb 0.00 in0.0 mm 0.00 in/hr0.0 mm/hr 0.00 in0.0 mm
12:20 AM 78.0°F25.6°C 74.9°F23.8°C 90% 2.9 mph SSW4.7 kmh SSW 4.0 mph6.4 kmh 30.03 in1016.9 mb 0.00 in0.0 mm 0.00 in/hr0.0 mm/hr 0.00 in0.0 mm
12:30 AM 78.0°F25.6°C 74.8°F23.8°C 90% 1.9 mph SSW3.1 kmh SSW 3.0 mph4.8 kmh 30.02 in1016.6 mb 0.00 in0.0 mm 0.00 in/hr0.0 mm/hr 0.00 in0.0 mm
12:40 AM 77.9°F25.5°C 74.7°F23.7°C 90% 2.2 mph SSW3.5 kmh SSW 4.0 mph6.4 kmh 30.03 in1016.9 mb 0.00 in0.0 mm 0.00 in/hr0.0 mm/hr 0.00 in0.0 mm
12:50 AM 77.8°F25.4°C 74.6°F23.7°C 90% 1.0 mph SSW1.6 kmh SSW 2.0 mph3.2 kmh 30.02 in1016.6 mb 0.00 in0.0 mm 0.00 in/hr0.0 mm/hr 0.00 in0.0 mm
01:00 AM 77.7°F25.4°C 74.5°F23.6°C 90% 1.7 mph SSW2.7 kmh SSW 3.0 mph4.8 kmh 30.02 in1016.6 mb 0.00 in0.0 mm 0.00 in/hr0.0 mm/hr 0.00 in0.0 mm
01:10 AM 77.6°F25.3°C 74.5°F23.6°C 90% 1.9 mph SSW3.1 kmh SSW 4.0 mph6.4 kmh 30.02 in1016.6 mb 0.00 in0.0 mm 0.00 in/hr0.0 mm/hr 0.00 in0.0 mm
01:20 AM 77.6°F25.3°C 74.4°F23.6°C 90% 1.6 mph SSW2.6 kmh SSW 4.0 mph6.4 kmh 30.02 in1016.6 mb 0.00 in0.0 mm 0.00 in/hr0.0 mm/hr 0.00 in0.0 mm
01:30 AM 77.5°F25.3°C 74.3°F23.5°C 90% 2.2 mph SSW3.5 kmh SSW 3.0 mph4.8 kmh 30.02 in1016.6 mb 0.00 in0.0 mm 0.00 in/hr0.0 mm/hr 0.00 in0.0 mm
01:40 AM 77.5°F25.3°C 74.3°F23.5°C 90% 2.5 mph SSW4.0 kmh SSW 3.0 mph4.8 kmh 30.02 in1016.6 mb 0.00 in0.0 mm 0.00 in/hr0.0 mm/hr 0.00 in0.0 mm
01:50 AM 77.5°F25.3°C 74.7°F23.7°C 91% 2.3 mph SSW3.7 kmh SSW 3.0 mph4.8 kmh 30.02 in1016.6 mb 0.00 in0.0 mm 0.00 in/hr0.0 mm/hr 0.00 in0.0 mm
02:00 AM 77.4°F25.2°C 74.2°F23.4°C 90% 1.9 mph SSW3.1 kmh SSW 3.0 mph4.8 kmh 30.01 in1016.3 mb 0.00 in0.0 mm 0.00 in/hr0.0 mm/hr 0.00 in0.0 mm
02:10 AM 77.2°F25.1°C 74.0°F23.3°C 90% 1.6 mph SSW2.6 kmh SSW 4.0 mph6.4 kmh 30.01 in1016.3 mb 0.00 in0.0 mm 0.00 in/hr0.0 mm/hr 0.00 in0.0 mm
02:20 AM 77.1°F25.1°C 74.3°F23.5°C 91% 1.2 mph SSW1.9 kmh SSW 2.0 mph3.2 kmh 30.01 in1016.3 mb 0.00 in0.0 mm 0.00 in/hr0.0 mm/hr 0.00 in0.0 mm
02:30 AM 77.0°F25.0°C 74.2°F23.4°C 91% 2.4 mph SSW3.9 kmh SSW 6.0 mph9.7 kmh 30.01 in1016.3 mb 0.00 in0.0 mm 0.00 in/hr0.0 mm/hr 0.00 in0.0 mm
02:40 AM 77.0°F25.0°C 74.2°F23.4°C 91% 2.6 mph S4.2 kmh S 5.0 mph8.0 kmh 30.01 in1016.3 mb 0.00 in0.0 mm 0.00 in/hr0.0 mm/hr 0.00 in0.0 mm
02:50 AM 77.2°F25.1°C 74.4°F23.6°C 91% 3.1 mph S5.0 kmh S 4.0 mph6.4 kmh 30.01 in1016.3 mb 0.00 in0.0 mm 0.00 in/hr0.0 mm/hr 0.00 in0.0 mm
03:00 AM 77.1°F25.1°C 74.3°F23.5°C 91% 2.8 mph S4.5 kmh S 4.0 mph6.4 kmh 30.01 in1016.3 mb 0.00 in0.0 mm 0.00 in/hr0.0 mm/hr 0.00 in0.0 mm
03:10 AM 77.1°F25.1°C 74.3°F23.5°C 91% 3.4 mph S5.5 kmh S 5.0 mph8.0 kmh 30.00 in1015.9 mb 0.00 in0.0 mm 0.00 in/hr0.0 mm/hr 0.00 in0.0 mm
03:20 AM 77.1°F25.1°C 74.3°F23.5°C 91% 2.4 mph S3.9 kmh S 6.0 mph9.7 kmh 30.00 in1015.9 mb 0.00 in0.0 mm 0.00 in/hr0.0 mm/hr 0.00 in0.0 mm
03:30 AM 77.1°F25.1°C 74.3°F23.5°C 91% 2.6 mph S4.2 kmh S 4.0 mph6.4 kmh 30.00 in1015.9 mb 0.00 in0.0 mm 0.00 in/hr0.0 mm/hr 0.00 in0.0 mm
03:40 AM 77.2°F25.1°C 74.4°F23.6°C 91% 4.9 mph SSE7.9 kmh SSE 8.0 mph12.9 kmh 30.00 in1015.9 mb 0.00 in0.0 mm 0.00 in/hr0.0 mm/hr 0.00 in0.0 mm
03:50 AM 77.4°F25.2°C 74.6°F23.7°C 91% 4.7 mph SE7.6 kmh SE 8.0 mph12.9 kmh 30.00 in1015.9 mb 0.00 in0.0 mm 0.00 in/hr0.0 mm/hr 0.00 in0.0 mm
04:00 AM 77.5°F25.3°C 74.7°F23.7°C 91% 4.2 mph SSE6.8 kmh SSE 7.0 mph11.3 kmh 30.00 in1015.9 mb 0.00 in0.0 mm 0.00 in/hr0.0 mm/hr 0.00 in0.0 mm
04:10 AM 77.5°F25.3°C 74.3°F23.5°C 90% 4.9 mph S7.9 kmh S 7.0 mph11.3 kmh 30.00 in1015.9 mb 0.00 in0.0 mm 0.00 in/hr0.0 mm/hr 0.00 in0.0 mm
04:20 AM 77.5°F25.3°C 74.3°F23.5°C 90% 3.9 mph S6.3 kmh S 6.0 mph9.7 kmh 30.00 in1015.9 mb 0.00 in0.0 mm 0.00 in/hr0.0 mm/hr 0.00 in0.0 mm
04:30 AM 77.5°F25.3°C 74.3°F23.5°C 90% 3.6 mph SE5.8 kmh SE 7.0 mph11.3 kmh 30.00 in1015.9 mb 0.00 in0.0 mm 0.00 in/hr0.0 mm/hr 0.00 in0.0 mm
04:40 AM 77.4°F25.2°C 74.2°F23.4°C 90% 3.6 mph SSE5.8 kmh SSE 4.0 mph6.4 kmh 30.00 in1015.9 mb 0.00 in0.0 mm 0.00 in/hr0.0 mm/hr 0.00 in0.0 mm
04:50 AM 77.4°F25.2°C 74.2°F23.4°C 90% 3.9 mph SSE6.3 kmh SSE 7.0 mph11.3 kmh 30.00 in1015.9 mb 0.00 in0.0 mm 0.00 in/hr0.0 mm/hr 0.00 in0.0 mm
05:00 AM 77.4°F25.2°C 74.2°F23.4°C 90% 4.4 mph SE7.1 kmh SE 6.0 mph9.7 kmh 30.00 in1015.9 mb 0.00 in0.0 mm 0.00 in/hr0.0 mm/hr 0.00 in0.0 mm
05:10 AM 77.4°F25.2°C 74.2°F23.4°C 90% 6.1 mph SSE9.8 kmh SSE 7.0 mph11.3 kmh 29.99 in1015.6 mb 0.00 in0.0 mm 0.00 in/hr0.0 mm/hr 0.00 in0.0 mm
05:20 AM 77.5°F25.3°C 74.3°F23.5°C 90% 5.5 mph SSE8.9 kmh SSE 8.0 mph12.9 kmh 30.00 in1015.9 mb 0.00 in0.0 mm 0.00 in/hr0.0 mm/hr 0.00 in0.0 mm
05:30 AM 77.5°F25.3°C 74.3°F23.5°C 90% 5.0 mph S8.0 kmh S 8.0 mph12.9 kmh 30.01 in1016.3 mb 0.00 in0.0 mm 0.00 in/hr0.0 mm/hr 0.00 in0.0 mm
05:40 AM 77.4°F25.2°C 74.2°F23.4°C 90% 4.8 mph SSE7.7 kmh SSE 6.0 mph9.7 kmh 30.01 in1016.3 mb 0.00 in0.0 mm 0.00 in/hr0.0 mm/hr 0.00 in0.0 mm
05:50 AM 77.4°F25.2°C 73.9°F23.3°C 89% 3.5 mph S5.6 kmh S 5.0 mph8.0 kmh 30.01 in1016.3 mb 0.00 in0.0 mm 0.00 in/hr0.0 mm/hr 0.00 in0.0 mm
06:00 AM 77.4°F25.2°C 73.9°F23.3°C 89% 4.5 mph SSW7.2 kmh SSW 8.0 mph12.9 kmh 30.00 in1015.9 mb 0.00 in0.0 mm 0.00 in/hr0.0 mm/hr 0.00 in0.0 mm
06:10 AM 77.4°F25.2°C 73.9°F23.3°C 89% 4.5 mph SSE7.2 kmh SSE 6.0 mph9.7 kmh 30.01 in1016.3 mb 0.00 in0.0 mm 0.00 in/hr0.0 mm/hr 0.00 in0.0 mm
06:20 AM 77.4°F25.2°C 73.9°F23.3°C 89% 4.5 mph SSE7.2 kmh SSE 9.0 mph14.5 kmh 30.01 in1016.3 mb 0.00 in0.0 mm 0.00 in/hr0.0 mm/hr 0.00 in0.0 mm
06:30 AM 77.5°F25.3°C 74.0°F23.3°C 89% 4.7 mph SSE7.6 kmh SSE 7.0 mph11.3 kmh 30.01 in1016.3 mb 0.00 in0.0 mm 0.00 in/hr0.0 mm/hr 0.00 in0.0 mm
06:40 AM 77.5°F25.3°C 74.0°F23.3°C 89% 4.4 mph S7.1 kmh S 8.0 mph12.9 kmh 30.01 in1016.3 mb 0.00 in0.0 mm 0.00 in/hr0.0 mm/hr 0.00 in0.0 mm
06:50 AM 77.5°F25.3°C 74.0°F23.3°C 89% 5.4 mph SE8.7 kmh SE 8.0 mph12.9 kmh 30.01 in1016.3 mb 0.00 in0.0 mm 0.00 in/hr0.0 mm/hr 0.00 in0.0 mm
07:00 AM 77.5°F25.3°C 74.0°F23.3°C 89% 5.7 mph SE9.2 kmh SE 8.0 mph12.9 kmh 30.01 in1016.3 mb 0.00 in0.0 mm 0.00 in/hr0.0 mm/hr 0.00 in0.0 mm
07:10 AM 77.6°F25.3°C 74.1°F23.4°C 89% 5.5 mph S8.9 kmh S 9.0 mph14.5 kmh 30.01 in1016.3 mb 0.00 in0.0 mm 0.00 in/hr0.0 mm/hr 0.00 in0.0 mm
07:20 AM 77.7°F25.4°C 73.9°F23.3°C 88% 5.3 mph SE8.5 kmh SE 8.0 mph12.9 kmh 30.02 in1016.6 mb 0.00 in0.0 mm 0.00 in/hr0.0 mm/hr 0.00 in0.0 mm
07:30 AM 77.7°F25.4°C 73.9°F23.3°C 88% 6.7 mph SE10.8 kmh SE 8.0 mph12.9 kmh 30.02 in1016.6 mb 0.00 in0.0 mm 0.00 in/hr0.0 mm/hr 0.00 in0.0 mm
07:40 AM 78.0°F25.6°C 73.8°F23.2°C 87% 4.9 mph SSE7.9 kmh SSE 10.0 mph16.1 kmh 30.02 in1016.6 mb 0.00 in0.0 mm 0.00 in/hr0.0 mm/hr 0.00 in0.0 mm
07:50 AM 79.0°F26.1°C 74.4°F23.6°C 86% 3.9 mph S6.3 kmh S 10.0 mph16.1 kmh 30.02 in1016.6 mb 0.00 in0.0 mm 0.00 in/hr0.0 mm/hr 0.00 in0.0 mm
08:00 AM 79.9°F26.6°C 74.6°F23.7°C 84% 8.2 mph SSW13.2 kmh SSW 15.0 mph24.1 kmh 30.02 in1016.6 mb 0.00 in0.0 mm 0.00 in/hr0.0 mm/hr 0.00 in0.0 mm
08:10 AM 80.0°F26.7°C 74.4°F23.6°C 83% 8.8 mph SE14.2 kmh SE 16.0 mph25.7 kmh 30.03 in1016.9 mb 0.00 in0.0 mm 0.00 in/hr0.0 mm/hr 0.00 in0.0 mm
08:20 AM 80.3°F26.8°C 74.7°F23.7°C 83% 6.0 mph SE9.7 kmh SE 11.0 mph17.7 kmh 30.04 in1017.3 mb 0.00 in0.0 mm 0.00 in/hr0.0 mm/hr 0.00 in0.0 mm
08:31 AM 80.7°F27.1°C 74.7°F23.7°C 82% 9.2 mph S14.8 kmh S 12.0 mph19.3 kmh 30.03 in1016.9 mb 0.00 in0.0 mm 0.00 in/hr0.0 mm/hr 0.00 in0.0 mm
08:40 AM 81.4°F27.4°C 75.0°F23.9°C 81% 7.6 mph SE12.2 kmh SE 12.0 mph19.3 kmh 30.03 in1016.9 mb 0.00 in0.0 mm 0.00 in/hr0.0 mm/hr 0.00 in0.0 mm
08:50 AM 81.8°F27.7°C 75.4°F24.1°C 81% 6.7 mph SE10.8 kmh SE 11.0 mph17.7 kmh 30.03 in1016.9 mb 0.00 in0.0 mm 0.00 in/hr0.0 mm/hr 0.00 in0.0 mm
09:00 AM 81.7°F27.6°C 74.5°F23.6°C 79% 7.6 mph SSE12.2 kmh SSE 19.0 mph30.6 kmh 30.03 in1016.9 mb 0.00 in0.0 mm 0.00 in/hr0.0 mm/hr 0.00 in0.0 mm
09:10 AM 81.4°F27.4°C 75.0°F23.9°C 81% 9.0 mph SE14.5 kmh SE 18.0 mph29.0 kmh 30.03 in1016.9 mb 0.00 in0.0 mm 0.00 in/hr0.0 mm/hr 0.00 in0.0 mm
09:20 AM 81.4°F27.4°C 74.7°F23.7°C 80% 7.7 mph SE12.4 kmh SE 12.0 mph19.3 kmh 30.02 in1016.6 mb 0.00 in0.0 mm 0.00 in/hr0.0 mm/hr 0.00 in0.0 mm
09:30 AM 81.6°F27.6°C 74.8°F23.8°C 80% 10.1 mph SE16.3 kmh SE 20.0 mph32.2 kmh 30.03 in1016.9 mb 0.00 in0.0 mm 0.00 in/hr0.0 mm/hr 0.00 in0.0 mm
09:40 AM 81.9°F27.7°C 75.1°F23.9°C 80% 7.1 mph SSE11.4 kmh SSE 16.0 mph25.7 kmh 30.03 in1016.9 mb 0.00 in0.0 mm 0.00 in/hr0.0 mm/hr 0.00 in0.0 mm
09:50 AM 82.0°F27.8°C 74.8°F23.8°C 79% 12.9 mph SSE20.8 kmh SSE 21.0 mph33.8 kmh 30.02 in1016.6 mb 0.00 in0.0 mm 0.00 in/hr0.0 mm/hr 0.00 in0.0 mm
10:00 AM 81.9°F27.7°C 74.4°F23.6°C 78% 10.7 mph SSE17.2 kmh SSE 18.0 mph29.0 kmh 30.02 in1016.6 mb 0.00 in0.0 mm 0.00 in/hr0.0 mm/hr 0.00 in0.0 mm
10:10 AM 81.6°F27.6°C 74.1°F23.4°C 78% 13.8 mph SE22.2 kmh SE 23.0 mph37.0 kmh 30.02 in1016.6 mb 0.00 in0.0 mm 0.00 in/hr0.0 mm/hr 0.00 in0.0 mm
10:20 AM 81.9°F27.7°C 74.4°F23.6°C 78% 8.4 mph SSE13.5 kmh SSE 14.0 mph22.5 kmh 30.02 in1016.6 mb 0.00 in0.0 mm 0.00 in/hr0.0 mm/hr 0.00 in0.0 mm
10:30 AM 82.2°F27.9°C 74.7°F23.7°C 78% 7.2 mph SSE11.6 kmh SSE 11.0 mph17.7 kmh 30.02 in1016.6 mb 0.00 in0.0 mm 0.00 in/hr0.0 mm/hr 0.00 in0.0 mm
10:40 AM 82.0°F27.8°C 74.1°F23.4°C 77% 6.8 mph S10.9 kmh S 14.0 mph22.5 kmh 30.01 in1016.3 mb 0.00 in0.0 mm 0.00 in/hr0.0 mm/hr 0.00 in0.0 mm
10:50 AM 82.3°F27.9°C 74.4°F23.6°C 77% 7.0 mph SE11.3 kmh SE 13.0 mph20.9 kmh 30.01 in1016.3 mb 0.00 in0.0 mm 0.00 in/hr0.0 mm/hr 0.00 in0.0 mm
11:00 AM 82.5°F28.1°C 74.5°F23.6°C 77% 9.0 mph S14.5 kmh S 13.0 mph20.9 kmh 30.01 in1016.3 mb 0.00 in0.0 mm 0.00 in/hr0.0 mm/hr 0.00 in0.0 mm
11:10 AM 82.5°F28.1°C 74.5°F23.6°C 77% 9.4 mph SSE15.1 kmh SSE 14.0 mph22.5 kmh 30.00 in1015.9 mb 0.00 in0.0 mm 0.00 in/hr0.0 mm/hr 0.00 in0.0 mm
11:20 AM 82.5°F28.1°C 74.9°F23.8°C 78% 9.1 mph SSE14.6 kmh SSE 17.0 mph27.4 kmh 30.00 in1015.9 mb 0.00 in0.0 mm 0.00 in/hr0.0 mm/hr 0.00 in0.0 mm
11:30 AM 82.3°F27.9°C 74.7°F23.7°C 78% 9.0 mph SSW14.5 kmh SSW 14.0 mph22.5 kmh 29.99 in1015.6 mb 0.00 in0.0 mm 0.00 in/hr0.0 mm/hr 0.00 in0.0 mm
11:40 AM 82.1°F27.8°C 74.6°F23.7°C 78% 7.2 mph SE11.6 kmh SE 13.0 mph20.9 kmh 29.98 in1015.2 mb 0.00 in0.0 mm 0.00 in/hr0.0 mm/hr 0.00 in0.0 mm
11:50 AM 82.4°F28.0°C 74.5°F23.6°C 77% 7.3 mph S11.7 kmh S 15.0 mph24.1 kmh 29.98 in1015.2 mb 0.00 in0.0 mm 0.00 in/hr0.0 mm/hr 0.00 in0.0 mm
12:00 PM 82.9°F28.3°C 74.2°F23.4°C 75% 7.9 mph SSW12.7 kmh SSW 13.0 mph20.9 kmh 29.98 in1015.2 mb 0.00 in0.0 mm 0.00 in/hr0.0 mm/hr 0.00 in0.0 mm
12:10 PM 82.9°F28.3°C 74.2°F23.4°C 75% 8.5 mph SSE13.7 kmh SSE 13.0 mph20.9 kmh 29.98 in1015.2 mb 0.00 in0.0 mm 0.00 in/hr0.0 mm/hr 0.00 in0.0 mm
12:20 PM 82.7°F28.2°C 73.6°F23.1°C 74% 8.0 mph S12.9 kmh S 13.0 mph20.9 kmh 29.97 in1014.9 mb 0.00 in0.0 mm 0.00 in/hr0.0 mm/hr 0.00 in0.0 mm
12:30 PM 82.7°F28.2°C 73.9°F23.3°C 75% 10.6 mph SE17.1 kmh SE 17.0 mph27.4 kmh 29.96 in1014.6 mb 0.00 in0.0 mm 0.00 in/hr0.0 mm/hr 0.00 in0.0 mm
12:40 PM 82.9°F28.3°C 73.7°F23.2°C 74% 8.4 mph S13.5 kmh S 13.0 mph20.9 kmh 29.95 in1014.2 mb 0.00 in0.0 mm 0.00 in/hr0.0 mm/hr 0.00 in0.0 mm
12:50 PM 82.5°F28.1°C 73.4°F23.0°C 74% 9.3 mph SSW15.0 kmh SSW 15.0 mph24.1 kmh 29.95 in1014.2 mb 0.00 in0.0 mm 0.00 in/hr0.0 mm/hr 0.00 in0.0 mm
01:00 PM 83.0°F28.3°C 74.6°F23.7°C 76% 7.3 mph SE11.7 kmh SE 14.0 mph22.5 kmh 29.95 in1014.2 mb 0.00 in0.0 mm 0.00 in/hr0.0 mm/hr 0.00 in0.0 mm
01:10 PM 83.0°F28.3°C 73.9°F23.3°C 74% 8.2 mph SSE13.2 kmh SSE 15.0 mph24.1 kmh 29.95 in1014.2 mb 0.00 in0.0 mm 0.00 in/hr0.0 mm/hr 0.00 in0.0 mm
01:20 PM 83.2°F28.4°C 74.1°F23.4°C 74% 8.7 mph S14.0 kmh S 16.0 mph25.7 kmh 29.94 in1013.9 mb 0.00 in0.0 mm 0.00 in/hr0.0 mm/hr 0.00 in0.0 mm
01:30 PM 84.3°F29.1°C 74.3°F23.5°C 72% 6.8 mph SE10.9 kmh SE 12.0 mph19.3 kmh 29.94 in1013.9 mb 0.00 in0.0 mm 0.00 in/hr0.0 mm/hr 0.00 in0.0 mm
01:40 PM 84.1°F28.9°C 74.1°F23.4°C 72% 6.2 mph SE10.0 kmh SE 13.0 mph20.9 kmh 29.93 in1013.5 mb 0.00 in0.0 mm 0.00 in/hr0.0 mm/hr 0.00 in0.0 mm
01:50 PM 84.2°F29.0°C 74.2°F23.4°C 72% 6.7 mph S10.8 kmh S 14.0 mph22.5 kmh 29.93 in1013.5 mb 0.00 in0.0 mm 0.00 in/hr0.0 mm/hr 0.00 in0.0 mm
02:00 PM 83.4°F28.6°C 73.4°F23.0°C 72% 7.5 mph S12.1 kmh S 13.0 mph20.9 kmh 29.93 in1013.5 mb 0.00 in0.0 mm 0.00 in/hr0.0 mm/hr 0.00 in0.0 mm
02:10 PM 82.7°F28.2°C 73.1°F22.8°C 73% 9.3 mph S15.0 kmh S 12.0 mph19.3 kmh 29.92 in1013.2 mb 0.00 in0.0 mm 0.00 in/hr0.0 mm/hr 0.00 in0.0 mm
02:20 PM 82.8°F28.2°C 73.2°F22.9°C 73% 8.8 mph S14.2 kmh S 11.0 mph17.7 kmh 29.92 in1013.2 mb 0.00 in0.0 mm 0.00 in/hr0.0 mm/hr 0.00 in0.0 mm
02:30 PM 82.9°F28.3°C 73.7°F23.2°C 74% 8.5 mph SSW13.7 kmh SSW 14.0 mph22.5 kmh 29.91 in1012.9 mb 0.00 in0.0 mm 0.00 in/hr0.0 mm/hr 0.00 in0.0 mm
02:40 PM 82.7°F28.2°C 73.9°F23.3°C 75% 8.1 mph S13.0 kmh S 12.0 mph19.3 kmh 29.92 in1013.2 mb 0.00 in0.0 mm 0.00 in/hr0.0 mm/hr 0.00 in0.0 mm
02:50 PM 82.3°F27.9°C 73.6°F23.1°C 75% 7.3 mph SSE11.7 kmh SSE 11.0 mph17.7 kmh 29.91 in1012.9 mb 0.00 in0.0 mm 0.00 in/hr0.0 mm/hr 0.00 in0.0 mm
03:00 PM 82.1°F27.8°C 73.8°F23.2°C 76% 6.0 mph SSE9.7 kmh SSE 10.0 mph16.1 kmh 29.91 in1012.9 mb 0.00 in0.0 mm 0.00 in/hr0.0 mm/hr 0.00 in0.0 mm
03:10 PM 82.2°F27.9°C 73.9°F23.3°C 76% 8.2 mph SE13.2 kmh SE 10.0 mph16.1 kmh 29.92 in1013.2 mb 0.00 in0.0 mm 0.00 in/hr0.0 mm/hr 0.00 in0.0 mm
03:20 PM 82.2°F27.9°C 73.9°F23.3°C 76% 6.2 mph S10.0 kmh S 11.0 mph17.7 kmh 29.91 in1012.9 mb 0.00 in0.0 mm 0.00 in/hr0.0 mm/hr 0.00 in0.0 mm
03:30 PM 82.2°F27.9°C 73.9°F23.3°C 76% 9.0 mph S14.5 kmh S 11.0 mph17.7 kmh 29.91 in1012.9 mb 0.00 in0.0 mm 0.00 in/hr0.0 mm/hr 0.00 in0.0 mm
03:40 PM 82.2°F27.9°C 73.9°F23.3°C 76% 6.6 mph SE10.6 kmh SE 9.0 mph14.5 kmh 29.91 in1012.9 mb 0.00 in0.0 mm 0.00 in/hr0.0 mm/hr 0.00 in0.0 mm
03:50 PM 82.2°F27.9°C 73.8°F23.2°C 76% 8.5 mph SE13.7 kmh SE 13.0 mph20.9 kmh 29.91 in1012.9 mb 0.00 in0.0 mm 0.00 in/hr0.0 mm/hr 0.00 in0.0 mm
04:00 PM 82.0°F27.8°C 74.1°F23.4°C 77% 7.9 mph WSW12.7 kmh WSW 13.0 mph20.9 kmh 29.91 in1012.9 mb 0.00 in0.0 mm 0.00 in/hr0.0 mm/hr 0.00 in0.0 mm
04:10 PM 81.9°F27.7°C 74.0°F23.3°C 77% 5.0 mph SSE8.0 kmh SSE 7.0 mph11.3 kmh 29.91 in1012.9 mb 0.00 in0.0 mm 0.00 in/hr0.0 mm/hr 0.00 in0.0 mm
04:20 PM 81.6°F27.6°C 74.0°F23.3°C 78% 6.4 mph S10.3 kmh S 14.0 mph22.5 kmh 29.91 in1012.9 mb 0.00 in0.0 mm 0.00 in/hr0.0 mm/hr 0.00 in0.0 mm
04:30 PM 81.4°F27.4°C 74.3°F23.5°C 79% 4.8 mph SSE7.7 kmh SSE 8.0 mph12.9 kmh 29.91 in1012.9 mb 0.00 in0.0 mm 0.00 in/hr0.0 mm/hr 0.00 in0.0 mm
04:40 PM 81.2°F27.3°C 73.7°F23.2°C 78% 7.3 mph SSE11.7 kmh SSE 11.0 mph17.7 kmh 29.92 in1013.2 mb 0.00 in0.0 mm 0.00 in/hr0.0 mm/hr 0.00 in0.0 mm
04:50 PM 80.9°F27.2°C 73.4°F23.0°C 78% 8.8 mph SSE14.2 kmh SSE 15.0 mph24.1 kmh 29.92 in1013.2 mb 0.00 in0.0 mm 0.00 in/hr0.0 mm/hr 0.00 in0.0 mm
05:00 PM 80.6°F27.0°C 73.4°F23.0°C 79% 6.1 mph SSE9.8 kmh SSE 11.0 mph17.7 kmh 29.92 in1013.2 mb 0.00 in0.0 mm 0.00 in/hr0.0 mm/hr 0.00 in0.0 mm
05:10 PM 80.4°F26.9°C 73.3°F22.9°C 79% 6.7 mph S10.8 kmh S 9.0 mph14.5 kmh 29.93 in1013.5 mb 0.00 in0.0 mm 0.00 in/hr0.0 mm/hr 0.00 in0.0 mm
05:20 PM 80.2°F26.8°C 73.5°F23.1°C 80% 5.0 mph SSE8.0 kmh SSE 9.0 mph14.5 kmh 29.93 in1013.5 mb 0.00 in0.0 mm 0.00 in/hr0.0 mm/hr 0.00 in0.0 mm
05:30 PM 80.0°F26.7°C 73.3°F22.9°C 80% 6.3 mph S10.1 kmh S 13.0 mph20.9 kmh 29.93 in1013.5 mb 0.00 in0.0 mm 0.00 in/hr0.0 mm/hr 0.00 in0.0 mm
05:40 PM 79.8°F26.6°C 73.4°F23.0°C 81% 5.3 mph SSW8.5 kmh SSW 9.0 mph14.5 kmh 29.93 in1013.5 mb 0.00 in0.0 mm 0.00 in/hr0.0 mm/hr 0.00 in0.0 mm
05:50 PM 79.6°F26.4°C 73.3°F22.9°C 81% 5.9 mph SE9.5 kmh SE 10.0 mph16.1 kmh 29.93 in1013.5 mb 0.00 in0.0 mm 0.00 in/hr0.0 mm/hr 0.00 in0.0 mm
06:00 PM 79.5°F26.4°C 73.1°F22.8°C 81% 6.3 mph S10.1 kmh S 10.0 mph16.1 kmh 29.93 in1013.5 mb 0.00 in0.0 mm 0.00 in/hr0.0 mm/hr 0.00 in0.0 mm
06:10 PM 79.3°F26.3°C 73.3°F22.9°C 82% 5.3 mph SSE8.5 kmh SSE 7.0 mph11.3 kmh 29.93 in1013.5 mb 0.00 in0.0 mm 0.00 in/hr0.0 mm/hr 0.00 in0.0 mm
06:20 PM 79.1°F26.2°C 73.1°F22.8°C 82% 5.5 mph S8.9 kmh S 12.0 mph19.3 kmh 29.93 in1013.5 mb 0.00 in0.0 mm 0.00 in/hr0.0 mm/hr 0.00 in0.0 mm
06:30 PM 78.9°F26.1°C 72.9°F22.7°C 82% 5.1 mph S8.2 kmh S 7.0 mph11.3 kmh 29.93 in1013.5 mb 0.00 in0.0 mm 0.00 in/hr0.0 mm/hr 0.00 in0.0 mm
06:40 PM 78.9°F26.1°C 73.3°F22.9°C 83% 5.3 mph S8.5 kmh S 9.0 mph14.5 kmh 29.94 in1013.9 mb 0.00 in0.0 mm 0.00 in/hr0.0 mm/hr 0.00 in0.0 mm
06:50 PM 78.8°F26.0°C 73.2°F22.9°C 83% 4.8 mph S7.7 kmh S 6.0 mph9.7 kmh 29.94 in1013.9 mb 0.00 in0.0 mm 0.00 in/hr0.0 mm/hr 0.00 in0.0 mm
07:00 PM 78.7°F25.9°C 73.1°F22.8°C 83% 4.5 mph S7.2 kmh S 7.0 mph11.3 kmh 29.94 in1013.9 mb 0.00 in0.0 mm 0.00 in/hr0.0 mm/hr 0.00 in0.0 mm
07:10 PM 78.6°F25.9°C 73.4°F23.0°C 84% 5.1 mph S8.2 kmh S 8.0 mph12.9 kmh 29.94 in1013.9 mb 0.00 in0.0 mm 0.00 in/hr0.0 mm/hr 0.00 in0.0 mm
07:20 PM 78.7°F25.9°C 73.5°F23.1°C 84% 7.5 mph SE12.1 kmh SE 12.0 mph19.3 kmh 29.94 in1013.9 mb 0.00 in0.0 mm 0.00 in/hr0.0 mm/hr 0.00 in0.0 mm
07:30 PM 78.7°F25.9°C 73.5°F23.1°C 84% 7.0 mph SE11.3 kmh SE 11.0 mph17.7 kmh 29.95 in1014.2 mb 0.00 in0.0 mm 0.00 in/hr0.0 mm/hr 0.00 in0.0 mm
07:40 PM 78.6°F25.9°C 73.4°F23.0°C 84% 5.8 mph SSW9.3 kmh SSW 11.0 mph17.7 kmh 29.94 in1013.9 mb 0.00 in0.0 mm 0.00 in/hr0.0 mm/hr 0.00 in0.0 mm
07:50 PM 78.5°F25.8°C 73.6°F23.1°C 85% 5.5 mph S8.9 kmh S 8.0 mph12.9 kmh 29.94 in1013.9 mb 0.00 in0.0 mm 0.00 in/hr0.0 mm/hr 0.00 in0.0 mm
08:00 PM 78.4°F25.8°C 73.5°F23.1°C 85% 5.3 mph S8.5 kmh S 8.0 mph12.9 kmh 29.95 in1014.2 mb 0.00 in0.0 mm 0.00 in/hr0.0 mm/hr 0.00 in0.0 mm
08:10 PM 78.3°F25.7°C 73.4°F23.0°C 85% 4.8 mph S7.7 kmh S 7.0 mph11.3 kmh 29.95 in1014.2 mb 0.00 in0.0 mm 0.00 in/hr0.0 mm/hr 0.00 in0.0 mm
08:20 PM 78.3°F25.7°C 73.4°F23.0°C 85% 5.8 mph SE9.3 kmh SE 7.0 mph11.3 kmh 29.95 in1014.2 mb 0.00 in0.0 mm 0.00 in/hr0.0 mm/hr 0.00 in0.0 mm
08:30 PM 78.4°F25.8°C 73.5°F23.1°C 85% 5.7 mph S9.2 kmh S 8.0 mph12.9 kmh 29.95 in1014.2 mb 0.00 in0.0 mm 0.00 in/hr0.0 mm/hr 0.00 in0.0 mm
08:40 PM 78.3°F25.7°C 73.4°F23.0°C 85% 5.0 mph SSE8.0 kmh SSE 11.0 mph17.7 kmh 29.95 in1014.2 mb 0.00 in0.0 mm 0.00 in/hr0.0 mm/hr 0.00 in0.0 mm
08:50 PM 78.3°F25.7°C 73.4°F23.0°C 85% 3.7 mph S6.0 kmh S 8.0 mph12.9 kmh 29.95 in1014.2 mb 0.00 in0.0 mm 0.00 in/hr0.0 mm/hr 0.00 in0.0 mm
09:00 PM 78.2°F25.7°C 73.3°F22.9°C 85% 4.9 mph S7.9 kmh S 7.0 mph11.3 kmh 29.95 in1014.2 mb 0.00 in0.0 mm 0.00 in/hr0.0 mm/hr 0.00 in0.0 mm
09:10 PM 78.2°F25.7°C 73.3°F22.9°C 85% 4.5 mph S7.2 kmh S 7.0 mph11.3 kmh 29.95 in1014.2 mb 0.00 in0.0 mm 0.00 in/hr0.0 mm/hr 0.00 in0.0 mm
09:20 PM 78.1°F25.6°C 73.6°F23.1°C 86% 3.6 mph SSW5.8 kmh SSW 5.0 mph8.0 kmh 29.96 in1014.6 mb 0.00 in0.0 mm 0.00 in/hr0.0 mm/hr 0.00 in0.0 mm
09:30 PM 78.1°F25.6°C 73.6°F23.1°C 86% 3.7 mph S6.0 kmh S 5.0 mph8.0 kmh 29.96 in1014.6 mb 0.00 in0.0 mm 0.00 in/hr0.0 mm/hr 0.00 in0.0 mm
09:40 PM 78.0°F25.6°C 73.5°F23.1°C 86% 5.0 mph SW8.0 kmh SW 9.0 mph14.5 kmh 29.95 in1014.2 mb 0.00 in0.0 mm 0.00 in/hr0.0 mm/hr 0.00 in0.0 mm
09:50 PM 77.9°F25.5°C 73.4°F23.0°C 86% 5.4 mph SSW8.7 kmh SSW 8.0 mph12.9 kmh 29.95 in1014.2 mb 0.00 in0.0 mm 0.00 in/hr0.0 mm/hr 0.00 in0.0 mm
10:00 PM 77.9°F25.5°C 73.4°F23.0°C 86% 4.2 mph SSE6.8 kmh SSE 7.0 mph11.3 kmh 29.95 in1014.2 mb 0.00 in0.0 mm 0.00 in/hr0.0 mm/hr 0.00 in0.0 mm
10:10 PM 77.8°F25.4°C 73.3°F22.9°C 86% 4.3 mph S6.9 kmh S 6.0 mph9.7 kmh 29.95 in1014.2 mb 0.00 in0.0 mm 0.00 in/hr0.0 mm/hr 0.00 in0.0 mm
10:20 PM 77.7°F25.4°C 73.2°F22.9°C 86% 2.9 mph SW4.7 kmh SW 7.0 mph11.3 kmh 29.95 in1014.2 mb 0.00 in0.0 mm 0.00 in/hr0.0 mm/hr 0.00 in0.0 mm
10:30 PM 77.6°F25.3°C 73.1°F22.8°C 86% 4.0 mph S6.4 kmh S 7.0 mph11.3 kmh 29.95 in1014.2 mb 0.00 in0.0 mm 0.00 in/hr0.0 mm/hr 0.00 in0.0 mm
10:40 PM 77.6°F25.3°C 73.1°F22.8°C 86% 3.5 mph SSW5.6 kmh SSW 6.0 mph9.7 kmh 29.95 in1014.2 mb 0.00 in0.0 mm 0.00 in/hr0.0 mm/hr 0.00 in0.0 mm
10:50 PM 77.6°F25.3°C 73.4°F23.0°C 87% 2.8 mph S4.5 kmh S 5.0 mph8.0 kmh 29.95 in1014.2 mb 0.00 in0.0 mm 0.00 in/hr0.0 mm/hr 0.00 in0.0 mm
11:00 PM 77.6°F25.3°C 73.4°F23.0°C 87% 2.9 mph SSW4.7 kmh SSW 5.0 mph8.0 kmh 29.94 in1013.9 mb 0.00 in0.0 mm 0.00 in/hr0.0 mm/hr 0.00 in0.0 mm
11:10 PM 77.6°F25.3°C 73.4°F23.0°C 87% 2.5 mph S4.0 kmh S 3.0 mph4.8 kmh 29.94 in1013.9 mb 0.00 in0.0 mm 0.00 in/hr0.0 mm/hr 0.00 in0.0 mm
11:20 PM 77.5°F25.3°C 73.3°F22.9°C 87% 2.8 mph S4.5 kmh S 4.0 mph6.4 kmh 29.93 in1013.5 mb 0.00 in0.0 mm 0.00 in/hr0.0 mm/hr 0.00 in0.0 mm
11:30 PM 77.4°F25.2°C 73.2°F22.9°C 87% 3.2 mph S5.1 kmh S 4.0 mph6.4 kmh 29.93 in1013.5 mb 0.00 in0.0 mm 0.00 in/hr0.0 mm/hr 0.00 in0.0 mm
11:40 PM 77.4°F25.2°C 73.6°F23.1°C 88% 4.0 mph S6.4 kmh S 6.0 mph9.7 kmh 29.92 in1013.2 mb 0.00 in0.0 mm 0.00 in/hr0.0 mm/hr 0.00 in0.0 mm
11:50 PM 77.4°F25.2°C 73.6°F23.1°C 88% 4.2 mph S6.8 kmh S 9.0 mph14.5 kmh 29.91 in1012.9 mb 0.00 in0.0 mm 0.00 in/hr0.0 mm/hr 0.00 in0.0 mm